createdAt,value
2022-11-14T00:01:46.528Z,99.90
2022-11-14T00:07:07.306Z,99.90
2022-11-14T00:12:28.304Z,99.90
2022-11-14T00:17:49.272Z,99.90
2022-11-14T00:23:10.363Z,99.90
2022-11-14T00:28:31.583Z,99.90
2022-11-14T00:33:52.652Z,99.90
2022-11-14T00:39:14.366Z,99.90
2022-11-14T00:44:35.199Z,99.90
2022-11-14T00:49:56.229Z,99.90
2022-11-14T00:55:17.205Z,99.90
2022-11-14T01:00:38.606Z,99.90
2022-11-14T01:06:05.368Z,99.90
2022-11-14T01:11:26.502Z,99.90
2022-11-14T01:16:47.364Z,99.90
2022-11-14T01:22:08.439Z,99.90
2022-11-14T01:27:31.258Z,99.90
2022-11-14T01:32:52.455Z,99.90
2022-11-14T01:38:15.071Z,99.90
2022-11-14T01:43:40.019Z,99.90
2022-11-14T01:49:13.360Z,99.90
2022-11-14T01:54:38.724Z,99.90
2022-11-14T02:00:05.505Z,99.90
2022-11-14T02:05:27.042Z,99.90
2022-11-14T02:10:47.816Z,99.90
2022-11-14T02:16:08.757Z,99.90
2022-11-14T02:21:29.468Z,99.90
2022-11-14T02:26:50.636Z,99.90
2022-11-14T02:33:08.834Z,99.90
2022-11-14T02:38:21.284Z,99.90
2022-11-14T02:43:42.218Z,99.90
2022-11-14T02:49:03.251Z,99.90
2022-11-14T02:54:24.370Z,99.90
2022-11-14T02:59:44.992Z,99.90
2022-11-14T03:05:06.093Z,99.90
2022-11-14T03:10:27.031Z,99.90
2022-11-14T03:15:48.124Z,99.90
2022-11-14T03:21:15.093Z,99.90
2022-11-14T03:26:35.898Z,99.90
2022-11-14T03:31:56.987Z,99.90
2022-11-14T03:37:17.871Z,99.90
2022-11-14T03:42:38.782Z,99.90
2022-11-14T03:47:59.678Z,99.90
2022-11-14T03:53:20.822Z,99.90
2022-11-14T03:58:41.629Z,99.90
2022-11-14T04:04:04.287Z,99.90
2022-11-14T04:09:25.136Z,99.90
2022-11-14T04:14:46.012Z,99.90
2022-11-14T04:20:07.276Z,99.90
2022-11-14T04:25:28.121Z,99.90
2022-11-14T04:30:49.130Z,99.90
2022-11-14T04:36:10.169Z,99.90
2022-11-14T04:41:31.011Z,99.90
2022-11-14T04:46:52.044Z,99.90
2022-11-14T04:52:12.948Z,99.90
2022-11-14T04:57:33.887Z,99.90
2022-11-14T05:02:54.858Z,99.90
2022-11-14T05:08:15.868Z,99.90
2022-11-14T05:13:36.651Z,99.90
2022-11-14T05:18:57.723Z,99.90
2022-11-14T05:24:19.381Z,99.90
2022-11-14T05:29:40.175Z,99.90
2022-11-14T05:35:01.023Z,99.90
2022-11-14T05:40:22.193Z,99.90
2022-11-14T05:45:43.022Z,99.90
2022-11-14T05:51:05.564Z,99.90
2022-11-14T05:56:26.651Z,99.90
2022-11-14T06:01:47.471Z,99.90
2022-11-14T06:07:08.441Z,99.90
2022-11-14T06:12:29.144Z,99.90
2022-11-14T06:17:52.995Z,99.90
2022-11-14T06:23:14.126Z,99.90
2022-11-14T06:28:34.964Z,99.90
2022-11-14T06:33:56.957Z,99.90
2022-11-14T06:39:17.782Z,99.90
2022-11-14T06:44:38.776Z,99.90
2022-11-14T06:49:59.555Z,99.90
2022-11-14T06:55:25.111Z,99.90
2022-11-14T07:00:46.421Z,99.90
2022-11-14T07:06:08.492Z,99.90
2022-11-14T07:11:30.142Z,99.90
2022-11-14T07:16:50.851Z,99.90
2022-11-14T07:22:11.785Z,99.90
2022-11-14T07:27:32.675Z,99.90
2022-11-14T07:32:57.494Z,99.90
2022-11-14T07:38:18.363Z,99.90
2022-11-14T07:43:41.432Z,99.90
2022-11-14T07:49:01.999Z,99.90
2022-11-14T07:54:22.982Z,99.90
2022-11-14T07:59:43.912Z,99.90
2022-11-14T08:05:05.201Z,99.90
2022-11-14T08:10:28.618Z,99.90
2022-11-14T08:15:53.488Z,99.90
2022-11-14T08:21:14.277Z,99.90
2022-11-14T08:26:35.325Z,99.90
2022-11-14T08:31:59.969Z,99.90
2022-11-14T08:37:21.229Z,99.90
2022-11-14T08:42:42.146Z,99.90
2022-11-14T08:48:03.286Z,99.90
2022-11-14T08:53:24.420Z,99.90
2022-11-14T08:58:45.035Z,99.90
2022-11-14T09:04:05.985Z,99.90
2022-11-14T09:09:27.024Z,99.90
2022-11-14T09:14:48.047Z,99.90
2022-11-14T09:20:09.550Z,99.90
2022-11-14T09:25:31.338Z,99.90
2022-11-14T09:30:51.894Z,99.90
2022-11-14T09:36:15.945Z,99.90
2022-11-14T09:41:55.438Z,99.90
2022-11-14T09:47:22.392Z,99.90
2022-11-14T09:53:03.514Z,99.90
2022-11-14T09:58:24.493Z,99.90
2022-11-14T10:03:54.158Z,99.90
2022-11-14T10:09:48.576Z,99.90
2022-11-14T10:15:33.585Z,99.90
2022-11-14T10:20:58.290Z,99.90
2022-11-14T10:26:30.301Z,99.90
2022-11-14T10:32:00.188Z,99.90
2022-11-14T10:37:38.035Z,99.90
2022-11-14T10:43:24.134Z,99.90
2022-11-14T10:48:48.356Z,99.90
2022-11-14T10:54:30.477Z,99.90
2022-11-14T10:59:52.378Z,99.90
2022-11-14T11:05:18.424Z,99.90
2022-11-14T11:11:03.623Z,99.90
2022-11-14T11:16:26.261Z,99.90
2022-11-14T11:21:49.883Z,99.90
2022-11-14T11:27:20.937Z,99.90
2022-11-14T11:32:41.862Z,99.90
2022-11-14T11:38:05.370Z,99.90
2022-11-14T11:44:03.978Z,99.90
2022-11-14T11:49:54.959Z,99.90
2022-11-14T11:55:30.895Z,99.90
2022-11-14T12:00:55.549Z,99.90
2022-11-14T12:06:25.439Z,99.90
2022-11-14T12:11:54.478Z,99.90
2022-11-14T12:17:42.097Z,98.80
2022-11-14T12:23:36.755Z,63.30
2022-11-14T12:29:25.705Z,74.90
2022-11-14T12:34:47.894Z,79.20
2022-11-14T12:40:23.041Z,70.70
2022-11-14T12:45:43.888Z,63.00
2022-11-14T12:51:25.794Z,53.50
2022-11-14T12:57:00.280Z,53.50
2022-11-14T13:02:33.147Z,53.70
2022-11-14T13:08:12.506Z,54.50
2022-11-14T13:14:11.791Z,55.20
2022-11-14T13:19:51.113Z,56.30
2022-11-14T13:25:11.818Z,56.70
2022-11-14T13:31:10.485Z,58.50
2022-11-14T13:36:57.479Z,60.70
2022-11-14T13:42:21.231Z,66.90
2022-11-14T13:47:58.844Z,72.40
2022-11-14T13:53:26.190Z,81.30
2022-11-14T13:59:25.421Z,88.10
2022-11-14T14:05:04.703Z,93.70
2022-11-14T14:10:41.280Z,99.90
2022-11-14T14:16:13.607Z,99.90
2022-11-14T14:21:57.097Z,99.90
2022-11-14T14:27:23.234Z,98.40
2022-11-14T14:32:44.497Z,36.60
2022-11-14T14:38:11.791Z,24.10
2022-11-14T14:43:34.017Z,27.10
2022-11-14T14:48:55.336Z,28.60
2022-11-14T14:54:24.571Z,50.80
2022-11-14T14:59:45.824Z,60.00
2022-11-14T15:05:07.212Z,91.50
2022-11-14T15:10:30.732Z,94.60
2022-11-14T15:15:52.871Z,97.80
2022-11-14T15:21:27.364Z,99.90
2022-11-14T15:26:50.288Z,99.90
2022-11-14T15:32:23.343Z,99.90
2022-11-14T15:38:22.155Z,99.90
2022-11-14T15:43:44.735Z,99.90
2022-11-14T15:49:14.871Z,99.90
2022-11-14T15:54:37.807Z,99.90
2022-11-14T15:59:58.814Z,99.90
2022-11-14T16:05:25.117Z,99.90
2022-11-14T16:10:45.674Z,99.90
2022-11-14T16:16:06.687Z,99.90
2022-11-14T16:21:27.708Z,99.90
2022-11-14T16:26:49.211Z,99.90
2022-11-14T16:32:11.640Z,99.90
2022-11-14T16:37:32.858Z,99.90
2022-11-14T16:43:03.453Z,99.90
2022-11-14T16:48:24.006Z,99.90
2022-11-14T16:53:45.081Z,99.90
2022-11-14T16:59:06.417Z,99.90
2022-11-14T17:04:27.289Z,99.90
2022-11-14T17:09:48.180Z,99.90
2022-11-14T17:15:09.344Z,99.90
2022-11-14T17:20:30.037Z,99.90
2022-11-14T17:25:50.876Z,99.90
2022-11-14T17:31:12.103Z,99.90
2022-11-14T17:36:33.802Z,99.90
2022-11-14T17:41:54.496Z,99.90
2022-11-14T17:47:15.515Z,99.90
2022-11-14T17:52:36.366Z,99.90
2022-11-14T17:57:57.354Z,99.90
2022-11-14T18:03:18.355Z,99.90
2022-11-14T18:08:39.600Z,99.90
2022-11-14T18:14:00.449Z,99.90
2022-11-14T18:19:21.300Z,99.90
2022-11-14T18:24:47.249Z,99.90
2022-11-14T18:30:39.247Z,99.90
2022-11-14T18:36:00.041Z,99.90
2022-11-14T18:41:22.145Z,99.90
2022-11-14T18:46:42.936Z,99.90
2022-11-14T18:52:10.174Z,99.90
2022-11-14T18:57:34.035Z,99.90
2022-11-14T19:02:54.808Z,99.90
2022-11-14T19:08:18.432Z,99.90
2022-11-14T19:13:39.147Z,99.90
2022-11-14T19:19:00.938Z,99.90
2022-11-14T19:24:21.452Z,99.90
2022-11-14T19:29:42.424Z,99.90
2022-11-14T19:35:03.296Z,99.90
2022-11-14T19:40:24.140Z,99.90
2022-11-14T19:45:45.239Z,99.90
2022-11-14T19:51:09.635Z,99.90
2022-11-14T19:56:30.372Z,99.90
2022-11-14T20:01:55.352Z,99.90
2022-11-14T20:07:16.758Z,99.90
2022-11-14T20:12:37.634Z,99.90
2022-11-14T20:17:58.303Z,99.90
2022-11-14T20:23:19.205Z,99.90
2022-11-14T20:28:42.240Z,99.90
2022-11-14T20:34:03.200Z,99.90
2022-11-14T20:39:23.990Z,99.90
2022-11-14T20:44:45.028Z,99.90
2022-11-14T20:50:06.454Z,99.90
2022-11-14T20:55:27.290Z,99.90
2022-11-14T21:00:52.164Z,99.90
2022-11-14T21:06:14.544Z,99.90
2022-11-14T21:11:35.155Z,99.90
2022-11-14T21:16:56.331Z,99.90
2022-11-14T21:22:17.474Z,99.90
2022-11-14T21:27:38.447Z,99.90
2022-11-14T21:32:59.336Z,99.90
2022-11-14T21:38:20.414Z,99.90
2022-11-14T21:43:42.090Z,99.90
2022-11-14T21:49:03.084Z,99.90
2022-11-14T21:54:23.980Z,99.90
2022-11-14T21:59:44.883Z,99.90
2022-11-14T22:05:06.509Z,99.90
2022-11-14T22:10:27.448Z,99.90
2022-11-14T22:15:48.331Z,99.90
2022-11-14T22:21:09.235Z,99.90
2022-11-14T22:26:30.820Z,99.90
2022-11-14T22:31:53.056Z,99.90
2022-11-14T22:37:13.887Z,99.90
2022-11-14T22:42:34.735Z,99.90
2022-11-14T22:47:59.153Z,99.90
2022-11-14T22:53:20.319Z,99.90
2022-11-14T22:58:42.462Z,99.90
2022-11-14T23:04:05.420Z,99.90
2022-11-14T23:09:27.219Z,99.90
2022-11-14T23:14:48.005Z,99.90
2022-11-14T23:20:15.041Z,99.90
2022-11-14T23:25:37.804Z,99.90
2022-11-14T23:30:59.472Z,99.90
2022-11-14T23:36:21.145Z,99.90
2022-11-14T23:41:41.881Z,99.90
2022-11-14T23:47:02.839Z,99.90
2022-11-14T23:52:23.828Z,99.90
2022-11-14T23:57:44.918Z,99.90
